createdAt,value
2023-05-19T00:00:00.157Z,31.03
2023-05-19T00:02:40.870Z,31.03
2023-05-19T00:05:13.289Z,31.05
2023-05-19T00:07:30.617Z,31.02
2023-05-19T00:10:02.241Z,30.95
2023-05-19T00:12:32.100Z,30.96
2023-05-19T00:14:52.836Z,31.06
2023-05-19T00:17:13.645Z,31.20
2023-05-19T00:19:36.028Z,31.36
2023-05-19T00:22:05.518Z,31.56
2023-05-19T00:24:25.239Z,31.74
2023-05-19T00:26:35.293Z,31.91
2023-05-19T00:28:46.782Z,32.02
2023-05-19T00:31:16.191Z,32.19
2023-05-19T00:33:36.735Z,32.35
2023-05-19T00:35:46.078Z,32.41
2023-05-19T00:38:15.596Z,32.47
2023-05-19T00:40:45.195Z,32.50
2023-05-19T00:43:14.493Z,32.49
2023-05-19T00:45:44.510Z,32.43
2023-05-19T00:48:05.784Z,32.31
2023-05-19T00:50:35.900Z,32.21
2023-05-19T00:53:05.613Z,32.10
2023-05-19T00:55:37.552Z,31.98
2023-05-19T00:58:07.517Z,31.84
2023-05-19T01:00:32.266Z,31.70
2023-05-19T01:03:02.202Z,31.62
2023-05-19T01:05:22.575Z,31.53
2023-05-19T01:07:43.027Z,31.43
2023-05-19T01:09:56.433Z,31.36
2023-05-19T01:12:26.438Z,31.27
2023-05-19T01:14:55.756Z,31.18
2023-05-19T01:17:11.588Z,31.09
2023-05-19T01:19:42.848Z,30.98
2023-05-19T01:22:28.514Z,30.87
2023-05-19T01:25:23.407Z,30.80
2023-05-19T01:27:49.416Z,30.70
2023-05-19T01:30:32.507Z,30.62
2023-05-19T01:33:04.820Z,30.55
2023-05-19T01:35:36.758Z,30.45
2023-05-19T01:37:59.335Z,30.33
2023-05-19T01:40:16.401Z,30.17
2023-05-19T01:42:40.352Z,30.03
2023-05-19T01:44:54.467Z,29.93
2023-05-19T01:47:24.578Z,29.79
2023-05-19T01:49:54.603Z,29.67
2023-05-19T01:52:24.071Z,29.56
2023-05-19T01:54:33.509Z,29.48
2023-05-19T01:57:12.735Z,29.39
2023-05-19T01:59:44.123Z,29.32
2023-05-19T02:02:00.207Z,29.25
2023-05-19T02:04:40.501Z,29.17
2023-05-19T02:07:07.206Z,29.10
2023-05-19T02:09:25.377Z,29.04
2023-05-19T02:12:01.885Z,28.96
2023-05-19T02:14:35.856Z,28.86
2023-05-19T02:17:06.636Z,28.75
2023-05-19T02:19:30.225Z,28.67
2023-05-19T02:21:58.945Z,28.59
2023-05-19T02:24:28.590Z,28.54
2023-05-19T02:26:57.450Z,28.48
2023-05-19T02:29:16.805Z,28.44
2023-05-19T02:31:37.125Z,28.38
2023-05-19T02:33:46.429Z,28.30
2023-05-19T02:36:16.665Z,28.23
2023-05-19T02:38:29.990Z,28.17
2023-05-19T02:40:48.736Z,28.12
2023-05-19T02:43:18.547Z,28.06
2023-05-19T02:45:47.931Z,28.00
2023-05-19T02:48:00.982Z,27.90
2023-05-19T02:50:20.867Z,27.80
2023-05-19T02:52:30.745Z,27.73
2023-05-19T02:54:43.107Z,27.63
2023-05-19T02:57:02.604Z,27.54
2023-05-19T02:59:26.538Z,27.46
2023-05-19T03:01:38.054Z,27.40
2023-05-19T03:04:07.752Z,27.34
2023-05-19T03:06:26.685Z,27.27
2023-05-19T03:08:47.071Z,27.18
2023-05-19T03:11:07.678Z,27.08
2023-05-19T03:13:19.973Z,26.97
2023-05-19T03:15:29.638Z,26.87
2023-05-19T03:17:59.337Z,26.76
2023-05-19T03:20:11.245Z,26.70
2023-05-19T03:22:31.242Z,26.61
2023-05-19T03:25:00.832Z,26.52
2023-05-19T03:27:20.129Z,26.42
2023-05-19T03:29:32.882Z,26.32
2023-05-19T03:31:42.174Z,26.24
2023-05-19T03:34:11.558Z,26.16
2023-05-19T03:36:24.139Z,26.09
2023-05-19T03:38:54.341Z,26.01
2023-05-19T03:41:23.970Z,25.90
2023-05-19T03:43:53.521Z,25.79
2023-05-19T03:46:23.000Z,25.69
2023-05-19T03:49:01.673Z,25.59
2023-05-19T03:51:35.315Z,25.51
2023-05-19T03:54:13.935Z,25.40
2023-05-19T03:56:34.190Z,25.30
2023-05-19T03:59:03.614Z,25.19
2023-05-19T04:01:16.276Z,25.12
2023-05-19T04:03:34.827Z,25.04
2023-05-19T04:05:47.486Z,24.97
2023-05-19T04:07:57.359Z,24.88
2023-05-19T04:10:12.992Z,24.80
2023-05-19T04:12:26.023Z,24.74
2023-05-19T04:14:46.101Z,24.67
2023-05-19T04:16:59.119Z,24.60
2023-05-19T04:19:28.909Z,24.52
2023-05-19T04:21:41.516Z,24.47
2023-05-19T04:24:11.553Z,24.41
2023-05-19T04:26:34.760Z,24.34
2023-05-19T04:29:05.203Z,24.25
2023-05-19T04:31:18.085Z,24.14
2023-05-19T04:33:48.405Z,24.05
2023-05-19T04:36:21.796Z,23.96
2023-05-19T04:38:46.289Z,23.88
2023-05-19T04:40:56.730Z,23.82
2023-05-19T04:43:27.663Z,23.75
2023-05-19T04:45:47.769Z,23.65
2023-05-19T04:48:08.219Z,23.58
2023-05-19T04:50:32.758Z,23.52
2023-05-19T04:53:02.393Z,23.45
2023-05-19T04:55:17.494Z,23.37
2023-05-19T04:57:27.150Z,23.31
2023-05-19T04:59:40.006Z,23.23
2023-05-19T05:01:50.176Z,23.16
2023-05-19T05:03:59.705Z,23.10
2023-05-19T05:06:09.827Z,23.02
2023-05-19T05:08:23.449Z,22.95
2023-05-19T05:10:54.294Z,22.86
2023-05-19T05:13:11.148Z,22.80
2023-05-19T05:15:28.992Z,22.73
2023-05-19T05:17:44.032Z,22.66
2023-05-19T05:19:55.029Z,22.58
2023-05-19T05:22:08.872Z,22.51
2023-05-19T05:24:23.037Z,22.42
2023-05-19T05:26:43.793Z,22.33
2023-05-19T05:28:53.217Z,22.26
2023-05-19T05:31:14.010Z,22.17
2023-05-19T05:33:25.442Z,22.10
2023-05-19T05:35:38.443Z,22.04
2023-05-19T05:37:48.839Z,21.97
2023-05-19T05:39:58.343Z,21.90
2023-05-19T05:42:21.536Z,21.85
2023-05-19T05:44:43.872Z,21.78
2023-05-19T05:47:14.985Z,21.73
2023-05-19T05:49:25.562Z,21.65
2023-05-19T05:51:37.245Z,21.59
2023-05-19T05:53:56.709Z,21.52
2023-05-19T05:56:27.265Z,21.46
2023-05-19T05:58:57.161Z,21.39
2023-05-19T06:01:18.197Z,21.33
2023-05-19T06:03:32.345Z,21.28
2023-05-19T06:05:54.364Z,21.22
2023-05-19T06:08:23.941Z,21.11
2023-05-19T06:10:39.152Z,21.03
2023-05-19T06:12:59.814Z,20.95
2023-05-19T06:15:12.516Z,20.88
2023-05-19T06:17:52.051Z,20.79
2023-05-19T06:20:21.730Z,20.72
2023-05-19T06:22:31.181Z,20.66
2023-05-19T06:24:51.473Z,20.58
2023-05-19T06:27:14.542Z,20.50
2023-05-19T06:29:36.376Z,20.42
2023-05-19T06:31:49.453Z,20.34
2023-05-19T06:33:59.493Z,20.27
2023-05-19T06:36:10.441Z,20.21
2023-05-19T06:38:39.854Z,20.15
2023-05-19T06:41:09.757Z,20.08
2023-05-19T06:43:29.452Z,20.01
2023-05-19T06:45:42.622Z,19.94
2023-05-19T06:47:54.461Z,19.85
2023-05-19T06:50:07.299Z,19.76
2023-05-19T06:52:20.497Z,19.68
2023-05-19T06:54:33.461Z,19.62
2023-05-19T06:56:46.920Z,19.56
2023-05-19T06:59:16.683Z,19.48
2023-05-19T07:01:28.296Z,19.42
2023-05-19T07:03:42.608Z,19.35
2023-05-19T07:05:53.181Z,19.29
2023-05-19T07:08:06.000Z,19.22
2023-05-19T07:10:15.923Z,19.17
2023-05-19T07:12:37.333Z,19.13
2023-05-19T07:14:57.216Z,19.07
2023-05-19T07:17:07.327Z,19.05
2023-05-19T07:19:22.193Z,19.00
2023-05-19T07:21:32.216Z,18.96
2023-05-19T07:23:41.714Z,18.91
2023-05-19T07:25:51.060Z,18.88
2023-05-19T07:28:20.813Z,18.83
2023-05-19T07:30:34.256Z,18.80
2023-05-19T07:32:43.918Z,18.76
2023-05-19T07:35:13.818Z,18.72
2023-05-19T07:37:26.973Z,18.68
2023-05-19T07:39:56.369Z,18.65
2023-05-19T07:42:16.900Z,18.60
2023-05-19T07:44:31.682Z,18.56
2023-05-19T07:47:01.116Z,18.50
2023-05-19T07:49:21.967Z,18.44
2023-05-19T07:51:36.087Z,18.38
2023-05-19T07:53:45.563Z,18.34
2023-05-19T07:56:05.049Z,18.29
2023-05-19T07:58:14.402Z,18.25
2023-05-19T08:00:27.424Z,18.21
2023-05-19T08:02:36.855Z,18.16
2023-05-19T08:04:55.873Z,18.12
2023-05-19T08:07:18.014Z,18.07
2023-05-19T08:09:37.020Z,18.04
2023-05-19T08:11:50.176Z,18.02
2023-05-19T08:14:08.877Z,17.98
2023-05-19T08:16:27.575Z,17.96
2023-05-19T08:18:36.989Z,17.92
2023-05-19T08:20:46.765Z,17.90
2023-05-19T08:22:59.435Z,17.87
2023-05-19T08:25:09.902Z,17.84
2023-05-19T08:27:29.371Z,17.80
2023-05-19T08:29:39.092Z,17.77
2023-05-19T08:31:51.551Z,17.73
2023-05-19T08:34:21.097Z,17.69
2023-05-19T08:36:31.077Z,17.66
2023-05-19T08:38:40.734Z,17.63
2023-05-19T08:40:53.352Z,17.60
2023-05-19T08:43:22.863Z,17.56
2023-05-19T08:45:35.860Z,17.52
2023-05-19T08:47:58.050Z,17.47
2023-05-19T08:50:19.328Z,17.44
2023-05-19T08:52:34.863Z,17.40
2023-05-19T08:55:02.808Z,17.37
2023-05-19T08:57:16.137Z,17.34
2023-05-19T08:59:26.103Z,17.32
2023-05-19T09:03:51.005Z,17.21
2023-05-19T09:06:20.418Z,17.16
2023-05-19T09:08:30.749Z,17.11
2023-05-19T09:10:41.040Z,17.08
2023-05-19T09:12:53.594Z,17.06
2023-05-19T09:15:18.367Z,17.02
2023-05-19T09:17:30.753Z,16.98
2023-05-19T09:19:44.629Z,16.95
2023-05-19T09:22:16.561Z,16.91
2023-05-19T09:24:30.194Z,16.89
2023-05-19T09:26:43.555Z,16.86
2023-05-19T09:29:04.209Z,16.82
2023-05-19T09:31:14.048Z,16.78
2023-05-19T09:33:26.794Z,16.75
2023-05-19T09:35:50.554Z,16.74
2023-05-19T09:38:00.272Z,16.71
2023-05-19T09:40:13.086Z,16.67
2023-05-19T09:42:28.672Z,16.64
2023-05-19T09:45:05.527Z,16.61
2023-05-19T09:47:16.952Z,16.58
2023-05-19T09:49:36.418Z,16.51
2023-05-19T09:51:50.639Z,16.51
2023-05-19T09:54:18.601Z,16.48
2023-05-19T09:56:48.324Z,16.45
2023-05-19T09:58:58.251Z,16.44
2023-05-19T10:01:49.599Z,16.41
2023-05-19T10:04:03.661Z,16.38
2023-05-19T10:06:13.196Z,16.36
2023-05-19T10:08:24.794Z,16.33
2023-05-19T10:10:35.172Z,16.31
2023-05-19T10:12:45.387Z,16.29
2023-05-19T10:14:56.237Z,16.26
2023-05-19T10:17:05.696Z,16.24
2023-05-19T10:19:16.016Z,16.21
2023-05-19T10:21:25.302Z,16.19
2023-05-19T10:23:34.983Z,16.16
2023-05-19T10:25:45.291Z,16.13
2023-05-19T10:28:01.746Z,16.10
2023-05-19T10:30:16.415Z,16.08
2023-05-19T10:32:29.485Z,16.06
2023-05-19T10:35:07.957Z,16.03
2023-05-19T10:37:27.483Z,16.01
2023-05-19T10:39:38.437Z,16.00
2023-05-19T10:41:55.020Z,15.97
2023-05-19T10:44:11.636Z,15.94
2023-05-19T10:46:24.956Z,15.92
2023-05-19T10:48:37.847Z,15.89
2023-05-19T10:50:49.198Z,15.87
2023-05-19T10:53:00.773Z,15.85
2023-05-19T10:55:15.994Z,15.82
2023-05-19T10:57:32.250Z,15.79
2023-05-19T10:59:41.498Z,15.76
2023-05-19T11:01:50.666Z,15.74
2023-05-19T11:03:59.928Z,15.71
2023-05-19T11:06:32.356Z,15.69
2023-05-19T11:08:41.512Z,15.65
2023-05-19T11:10:53.807Z,15.63
2023-05-19T11:13:03.163Z,15.61
2023-05-19T11:15:15.403Z,15.60
2023-05-19T11:17:27.707Z,15.60
2023-05-19T11:19:38.174Z,15.59
2023-05-19T11:21:52.774Z,15.54
2023-05-19T11:24:02.820Z,15.50
2023-05-19T11:26:12.322Z,15.48
2023-05-19T11:28:26.323Z,15.47
2023-05-19T11:30:39.169Z,15.44
2023-05-19T11:32:51.169Z,15.44
2023-05-19T11:35:01.667Z,15.44
2023-05-19T11:37:11.357Z,15.42
2023-05-19T11:39:20.984Z,15.40
2023-05-19T11:41:31.600Z,15.38
2023-05-19T11:43:40.837Z,15.36
2023-05-19T11:45:50.372Z,15.35
2023-05-19T11:48:02.947Z,15.35
2023-05-19T11:50:15.220Z,15.34
2023-05-19T11:52:27.720Z,15.32
2023-05-19T11:54:40.432Z,15.32
2023-05-19T11:56:49.722Z,15.30
2023-05-19T11:58:58.890Z,15.28
2023-05-19T12:01:10.550Z,15.26
2023-05-19T12:03:23.194Z,15.24
2023-05-19T12:05:35.467Z,15.24
2023-05-19T12:07:49.916Z,15.24
2023-05-19T12:10:01.712Z,15.23
2023-05-19T12:12:09.420Z,15.22
2023-05-19T12:14:19.116Z,15.22
2023-05-19T12:16:39.388Z,15.19
2023-05-19T12:18:49.137Z,15.17
2023-05-19T12:20:58.781Z,15.15
2023-05-19T12:23:08.532Z,15.14
2023-05-19T12:25:19.733Z,15.13
2023-05-19T12:27:29.072Z,15.11
2023-05-19T12:29:39.911Z,15.09
2023-05-19T12:31:50.100Z,15.07
2023-05-19T12:33:59.431Z,15.06
2023-05-19T12:36:10.218Z,15.05
2023-05-19T12:38:21.002Z,15.04
2023-05-19T12:40:34.228Z,15.03
2023-05-19T12:42:49.069Z,15.03
2023-05-19T12:45:00.070Z,15.03
2023-05-19T12:47:10.675Z,15.02
2023-05-19T12:49:20.012Z,15.01
2023-05-19T12:51:29.252Z,15.00
2023-05-19T12:53:38.692Z,14.99
2023-05-19T12:55:48.351Z,14.98
2023-05-19T12:57:58.620Z,14.94
2023-05-19T13:00:15.230Z,14.95
2023-05-19T13:02:25.992Z,14.94
2023-05-19T13:04:35.497Z,14.94
2023-05-19T13:06:45.144Z,14.95
2023-05-19T13:08:54.579Z,14.98
2023-05-19T13:11:03.997Z,14.98
2023-05-19T13:13:13.640Z,15.01
2023-05-19T13:15:24.077Z,15.02
2023-05-19T13:17:35.038Z,15.03
2023-05-19T13:19:44.313Z,15.04
2023-05-19T13:21:54.129Z,15.06
2023-05-19T13:24:04.764Z,15.07
2023-05-19T13:26:14.616Z,15.08
2023-05-19T13:28:23.993Z,15.10
2023-05-19T13:30:34.618Z,15.11
2023-05-19T13:32:44.565Z,15.12
2023-05-19T13:34:54.005Z,15.14
2023-05-19T13:37:04.174Z,15.16
2023-05-19T13:39:13.888Z,15.16
2023-05-19T13:41:27.240Z,15.18
2023-05-19T13:43:37.289Z,15.19
2023-05-19T13:45:46.699Z,15.21
2023-05-19T13:47:57.002Z,15.24
2023-05-19T13:50:08.252Z,15.27
2023-05-19T13:52:17.638Z,15.30
2023-05-19T13:54:27.543Z,15.31
2023-05-19T13:56:37.401Z,15.34
2023-05-19T13:58:46.562Z,15.37
2023-05-19T14:00:57.342Z,15.39
2023-05-19T14:03:07.399Z,15.44
2023-05-19T14:05:16.900Z,15.48
2023-05-19T14:07:26.559Z,15.53
2023-05-19T14:09:36.366Z,15.57
2023-05-19T14:11:46.102Z,15.62
2023-05-19T14:13:55.220Z,15.66
2023-05-19T14:16:05.198Z,15.70
2023-05-19T14:18:15.188Z,15.74
2023-05-19T14:20:25.888Z,15.78
2023-05-19T14:22:36.202Z,15.80
2023-05-19T14:24:45.549Z,15.83
2023-05-19T14:26:54.889Z,15.85
2023-05-19T14:29:05.993Z,15.89
2023-05-19T14:31:16.693Z,15.94
2023-05-19T14:33:32.695Z,15.97
2023-05-19T14:35:44.391Z,16.00
2023-05-19T14:37:54.532Z,16.03
2023-05-19T14:40:04.911Z,16.07
2023-05-19T14:42:14.632Z,16.11
2023-05-19T14:44:24.290Z,16.14
2023-05-19T14:46:33.922Z,16.19
2023-05-19T14:48:43.828Z,16.22
2023-05-19T14:50:53.083Z,16.25
2023-05-19T14:53:03.356Z,16.28
2023-05-19T14:55:13.493Z,16.30
2023-05-19T14:57:23.507Z,16.31
2023-05-19T14:59:32.796Z,16.34
2023-05-19T15:01:42.483Z,16.36
2023-05-19T15:03:52.184Z,16.38
2023-05-19T15:06:01.612Z,16.41
2023-05-19T15:08:11.785Z,16.43
2023-05-19T15:10:21.933Z,16.45
2023-05-19T15:12:31.334Z,16.50
2023-05-19T15:14:40.785Z,16.54
2023-05-19T15:16:50.074Z,16.59
2023-05-19T15:19:00.138Z,16.61
2023-05-19T15:21:10.844Z,16.64
2023-05-19T15:23:19.974Z,16.66
2023-05-19T15:25:29.183Z,16.66
2023-05-19T15:27:40.261Z,16.70
2023-05-19T15:29:49.689Z,16.72
2023-05-19T15:31:58.825Z,16.77
2023-05-19T15:34:08.469Z,16.80
2023-05-19T15:36:17.619Z,16.85
2023-05-19T15:38:28.484Z,16.90
2023-05-19T15:40:39.524Z,16.94
2023-05-19T15:42:48.789Z,16.98
2023-05-19T15:44:58.943Z,17.04
2023-05-19T15:47:09.122Z,17.10
2023-05-19T15:49:18.758Z,17.16
2023-05-19T15:51:28.302Z,17.22
2023-05-19T15:53:38.118Z,17.26
2023-05-19T15:55:47.349Z,17.31
2023-05-19T15:57:56.530Z,17.37
2023-05-19T16:00:06.514Z,17.41
2023-05-19T16:02:16.783Z,17.44
2023-05-19T16:04:26.431Z,17.49
2023-05-19T16:06:35.696Z,17.54
2023-05-19T16:08:45.004Z,17.57
2023-05-19T16:10:55.530Z,17.59
2023-05-19T16:13:04.671Z,17.64
2023-05-19T16:15:14.677Z,17.69
2023-05-19T16:17:24.033Z,17.70
2023-05-19T16:19:33.363Z,17.74
2023-05-19T16:21:43.317Z,17.81
2023-05-19T16:23:52.572Z,17.88
2023-05-19T16:26:01.835Z,17.98
2023-05-19T16:28:11.201Z,18.07
2023-05-19T16:30:21.003Z,18.15
2023-05-19T16:32:30.195Z,18.23
2023-05-19T16:34:39.584Z,18.34
2023-05-19T16:36:48.750Z,18.42
2023-05-19T16:38:58.419Z,18.52
2023-05-19T16:41:12.654Z,18.59
2023-05-19T16:43:21.917Z,18.68
2023-05-19T16:45:31.493Z,18.81
2023-05-19T16:47:41.161Z,18.91
2023-05-19T16:49:50.697Z,19.00
2023-05-19T16:52:00.318Z,19.13
2023-05-19T16:54:09.922Z,19.31
2023-05-19T16:56:19.540Z,19.53
2023-05-19T16:58:30.845Z,19.72
2023-05-19T17:00:40.572Z,19.88
2023-05-19T17:02:49.910Z,20.04
2023-05-19T17:04:59.785Z,20.17
2023-05-19T17:07:09.983Z,20.32
2023-05-19T17:09:25.389Z,20.49
2023-05-19T17:11:34.776Z,20.57
2023-05-19T17:13:44.227Z,20.66
2023-05-19T17:15:54.697Z,20.77
2023-05-19T17:18:04.119Z,20.91
2023-05-19T17:20:15.686Z,21.05
2023-05-19T17:22:25.120Z,21.15
2023-05-19T17:24:34.645Z,21.29
2023-05-19T17:26:44.635Z,21.36
2023-05-19T17:28:53.873Z,21.45
2023-05-19T17:31:03.555Z,21.54
2023-05-19T17:33:13.351Z,21.61
2023-05-19T17:35:22.748Z,21.70
2023-05-19T17:37:31.924Z,21.80
2023-05-19T17:39:41.302Z,21.87
2023-05-19T17:41:50.520Z,21.97
2023-05-19T17:43:59.912Z,22.07
2023-05-19T17:46:09.854Z,22.18
2023-05-19T17:48:19.039Z,22.23
2023-05-19T17:50:28.910Z,22.21
2023-05-19T17:52:40.331Z,22.23
2023-05-19T17:54:50.906Z,22.30
2023-05-19T17:57:03.691Z,22.38
2023-05-19T17:59:15.249Z,22.38
2023-05-19T18:01:24.615Z,22.48
2023-05-19T18:03:35.250Z,22.60
2023-05-19T18:05:46.050Z,22.75
2023-05-19T18:07:55.631Z,22.90
2023-05-19T18:10:06.771Z,22.98
2023-05-19T18:12:16.374Z,23.08
2023-05-19T18:14:25.860Z,23.20
2023-05-19T18:16:35.403Z,23.34
2023-05-19T18:18:47.353Z,23.44
2023-05-19T18:20:56.948Z,23.53
2023-05-19T18:23:07.558Z,23.64
2023-05-19T18:25:18.861Z,23.71
2023-05-19T18:27:28.920Z,23.86
2023-05-19T18:29:39.096Z,23.97
2023-05-19T18:31:48.454Z,24.06
2023-05-19T18:33:58.139Z,24.10
2023-05-19T18:36:08.032Z,24.18
2023-05-19T18:38:17.620Z,24.24
2023-05-19T18:40:27.167Z,24.29
2023-05-19T18:42:36.527Z,24.34
2023-05-19T18:44:47.361Z,24.46
2023-05-19T18:46:56.860Z,24.59
2023-05-19T18:49:06.641Z,24.72
2023-05-19T18:51:18.883Z,24.81
2023-05-19T18:53:28.571Z,24.91
2023-05-19T18:55:38.587Z,24.98
2023-05-19T18:57:48.523Z,25.02
2023-05-19T18:59:57.783Z,25.12
2023-05-19T19:02:07.432Z,25.20
2023-05-19T19:04:17.107Z,25.28
2023-05-19T19:06:26.316Z,25.34
2023-05-19T19:08:35.591Z,25.30
2023-05-19T19:10:46.195Z,25.30
2023-05-19T19:12:55.415Z,25.31
2023-05-19T19:15:04.556Z,25.31
2023-05-19T19:17:14.061Z,25.33
2023-05-19T19:19:24.244Z,25.39
2023-05-19T19:21:33.807Z,25.39
2023-05-19T19:23:43.267Z,25.41
2023-05-19T19:25:52.816Z,25.47
2023-05-19T19:28:02.746Z,25.56
2023-05-19T19:30:14.283Z,25.67
2023-05-19T19:32:21.716Z,25.71
2023-05-19T19:34:31.153Z,25.73
2023-05-19T19:36:40.716Z,25.78
2023-05-19T19:38:50.262Z,25.82
2023-05-19T19:40:59.341Z,25.87
2023-05-19T19:43:11.391Z,25.95
2023-05-19T19:45:21.320Z,26.02
2023-05-19T19:47:30.794Z,26.11
2023-05-19T19:49:40.166Z,26.18
2023-05-19T19:51:49.752Z,26.25
2023-05-19T19:53:59.544Z,26.33
2023-05-19T19:56:11.679Z,26.40
2023-05-19T19:58:20.799Z,26.44
2023-05-19T20:00:30.527Z,26.52
2023-05-19T20:02:51.640Z,26.57
2023-05-19T20:05:10.944Z,26.66
2023-05-19T20:07:21.156Z,26.75
2023-05-19T20:09:30.725Z,26.83
2023-05-19T20:11:40.110Z,26.91
2023-05-19T20:13:49.626Z,26.98
2023-05-19T20:15:58.854Z,27.05
2023-05-19T20:18:08.332Z,27.10
2023-05-19T20:20:18.800Z,27.11
2023-05-19T20:22:28.621Z,27.05
2023-05-19T20:24:38.509Z,27.02
2023-05-19T20:26:47.902Z,27.00
2023-05-19T20:28:57.375Z,26.98
2023-05-19T20:31:07.212Z,27.02
2023-05-19T20:33:16.947Z,27.07
2023-05-19T20:35:26.620Z,27.04
2023-05-19T20:37:35.987Z,27.04
2023-05-19T20:39:45.761Z,27.04
2023-05-19T20:41:55.197Z,27.04
2023-05-19T20:44:04.361Z,27.06
2023-05-19T20:46:14.068Z,27.07
2023-05-19T20:48:23.312Z,27.07
2023-05-19T20:50:33.268Z,27.06
2023-05-19T20:52:43.166Z,27.05
2023-05-19T20:54:52.666Z,27.04
2023-05-19T20:57:06.937Z,27.09
2023-05-19T20:59:16.899Z,27.20
2023-05-19T21:01:26.750Z,27.26
2023-05-19T21:03:36.059Z,27.29
2023-05-19T21:05:45.426Z,27.38
2023-05-19T21:07:54.787Z,27.43
2023-05-19T21:10:04.460Z,27.46
2023-05-19T21:12:13.726Z,27.50
2023-05-19T21:14:23.255Z,27.52
2023-05-19T21:16:32.604Z,27.51
2023-05-19T21:18:42.179Z,27.54
2023-05-19T21:20:51.465Z,27.59
2023-05-19T21:23:01.618Z,27.65
2023-05-19T21:25:12.624Z,27.74
2023-05-19T21:27:21.928Z,27.81
2023-05-19T21:29:32.317Z,27.87
2023-05-19T21:31:41.661Z,27.93
2023-05-19T21:33:51.126Z,28.01
2023-05-19T21:36:00.920Z,28.04
2023-05-19T21:38:22.754Z,28.07
2023-05-19T21:40:32.918Z,28.03
2023-05-19T21:42:42.570Z,28.01
2023-05-19T21:44:51.742Z,28.00
2023-05-19T21:47:00.876Z,28.02
2023-05-19T21:49:10.316Z,28.08
2023-05-19T21:51:20.533Z,28.14
2023-05-19T21:53:31.837Z,28.21
2023-05-19T21:55:41.382Z,28.30
2023-05-19T21:57:51.099Z,28.38
2023-05-19T22:00:01.053Z,28.45
2023-05-19T22:02:21.386Z,28.49
2023-05-19T22:04:31.815Z,28.50
2023-05-19T22:06:41.043Z,28.54
2023-05-19T22:08:50.771Z,28.58
2023-05-19T22:10:59.946Z,28.64
2023-05-19T22:13:09.205Z,28.68
2023-05-19T22:15:18.540Z,28.71
2023-05-19T22:17:27.821Z,28.75
2023-05-19T22:19:37.148Z,28.78
2023-05-19T22:21:46.637Z,28.84
2023-05-19T22:23:57.062Z,28.89
2023-05-19T22:26:07.241Z,28.97
2023-05-19T22:28:17.493Z,29.05
2023-05-19T22:30:27.359Z,29.11
2023-05-19T22:32:36.830Z,29.16
2023-05-19T22:34:46.759Z,29.20
2023-05-19T22:36:56.256Z,29.27
2023-05-19T22:39:08.315Z,29.34
2023-05-19T22:41:18.028Z,29.41
2023-05-19T22:43:27.670Z,29.44
2023-05-19T22:45:37.902Z,29.47
2023-05-19T22:47:48.342Z,29.45
2023-05-19T22:49:57.608Z,29.43
2023-05-19T22:52:07.377Z,29.47
2023-05-19T22:54:17.100Z,29.53
2023-05-19T22:56:27.431Z,29.56
2023-05-19T22:58:37.082Z,29.57
2023-05-19T23:00:46.622Z,29.57
2023-05-19T23:02:55.863Z,29.60
2023-05-19T23:05:05.792Z,29.68
2023-05-19T23:07:17.148Z,29.75
2023-05-19T23:09:27.557Z,29.79
2023-05-19T23:11:37.321Z,29.87
2023-05-19T23:13:47.561Z,29.95
2023-05-19T23:15:57.139Z,30.01
2023-05-19T23:18:09.104Z,30.06
2023-05-19T23:20:19.216Z,30.06
2023-05-19T23:22:28.655Z,30.10
2023-05-19T23:24:38.459Z,30.12
2023-05-19T23:26:47.844Z,30.14
2023-05-19T23:28:57.080Z,30.13
2023-05-19T23:31:06.254Z,30.11
2023-05-19T23:33:15.717Z,30.12
2023-05-19T23:35:25.269Z,30.14
2023-05-19T23:37:34.480Z,30.11
2023-05-19T23:39:43.723Z,30.13
2023-05-19T23:41:53.136Z,30.15
2023-05-19T23:44:02.200Z,30.19
2023-05-19T23:46:11.371Z,30.24
2023-05-19T23:48:21.220Z,30.26
2023-05-19T23:50:30.687Z,30.27
2023-05-19T23:52:39.809Z,30.29
2023-05-19T23:54:50.144Z,30.31
2023-05-19T23:57:00.128Z,30.35
2023-05-19T23:59:09.667Z,30.39
